| time (UTC) | temp F | wind direction | speed MPH | gust MPH | rain 1hr in | rain 24hr in | rain mn in | humidity % | barometer mb |
| 20260504120103 | 65 | 75 | 0.0 | 3.0 | 0.00 | 0.00 | 0.00 | 89 | 1017.4 |
| 20260504110555 | 60 | 0 | 0.0 | 0.0 | 0.00 | 0.00 | 0.00 | 93 | 1017.0 |
| 20260504100557 | 61 | 0 | 0.0 | 2.0 | 0.00 | 0.00 | 0.00 | 92 | 1016.7 |
| 20260504100104 | 61 | 334 | 0.0 | 2.0 | 0.00 | 0.00 | 0.00 | 92 | 1016.7 |
| 20260504090117 | 61 | 0 | 0.0 | 2.0 | 0.00 | 0.00 | 0.00 | 89 | 1016.6 |
| 20260504081559 | 62 | 0 | 0.0 | 3.0 | 0.00 | 0.00 | 0.00 | 87 | 1016.6 |
| 20260504081053 | 63 | 0 | 1.0 | 3.0 | 0.00 | 0.00 | 0.00 | 88 | 1016.7 |
| 20260504080553 | 63 | 329 | 2.0 | 3.0 | 0.00 | 0.00 | 0.00 | 87 | 1016.9 |
| 20260504080112 | 63 | 321 | 0.0 | 3.0 | 0.00 | 0.00 | 0.00 | 88 | 1016.9 |
| 20260504050557 | 65 | 0 | 0.0 | 3.0 | 0.00 | 0.00 | 0.00 | 79 | 1017.7 |
| 20260504045600 | 65 | 36 | 0.0 | 3.0 | 0.00 | 0.00 | 0.00 | 78 | 1017.9 |
| 20260504045056 | 65 | 0 | 0.0 | 1.0 | 0.00 | 0.00 | 0.00 | 79 | 1017.8 |
| 20260504044619 | 66 | 0 | 0.0 | 0.0 | 0.00 | 0.00 | 0.00 | 79 | 1017.9 |
| 20260504044056 | 66 | 0 | 0.0 | 1.0 | 0.00 | 0.00 | 0.00 | 78 | 1018.1 |
| 20260504043556 | 66 | 0 | 0.0 | 1.0 | 0.00 | 0.00 | 0.00 | 77 | 1018.1 |
| 20260504043057 | 66 | 0 | 0.0 | 2.0 | 0.00 | 0.00 | 0.00 | 76 | 1018.2 |
| 20260504042556 | 66 | 0 | 0.0 | 2.0 | 0.00 | 0.00 | 0.00 | 75 | 1018.1 |
| 20260504042057 | 66 | 0 | 0.0 | 3.0 | 0.00 | 0.00 | 0.00 | 75 | 1018.1 |
| 20260504041556 | 66 | 0 | 0.0 | 3.0 | 0.00 | 0.00 | 0.00 | 74 | 1018.0 |
| 20260504041056 | 67 | 0 | 0.0 | 2.0 | 0.00 | 0.00 | 0.00 | 74 | 1018.0 |
| 20260504040556 | 67 | 315 | 0.0 | 3.0 | 0.00 | 0.00 | 0.00 | 74 | 1018.0 |
| 20260504040117 | 67 | 0 | 0.0 | 3.0 | 0.00 | 0.00 | 0.00 | 74 | 1018.0 |
| 20260504035559 | 67 | 0 | 0.0 | 4.0 | 0.00 | 0.00 | 0.00 | 73 | 1018.1 |
| 20260504035056 | 67 | 69 | 0.0 | 4.0 | 0.00 | 0.00 | 0.00 | 73 | 1018.1 |
| 20260504034607 | 67 | 360 | 0.0 | 6.0 | 0.00 | 0.00 | 0.00 | 73 | 1018.0 |
| 20260504034056 | 67 | 0 | 0.0 | 6.0 | 0.00 | 0.00 | 0.00 | 73 | 1018.0 |
| 20260504033558 | 67 | 84 | 1.0 | 6.0 | 0.00 | 0.00 | 0.00 | 72 | 1018.0 |
| 20260504033058 | 67 | 40 | 1.0 | 4.0 | 0.00 | 0.00 | 0.00 | 72 | 1017.9 |
| 20260504032559 | 67 | 56 | 1.0 | 4.0 | 0.00 | 0.00 | 0.00 | 72 | 1017.9 |
| 20260504032058 | 67 | 86 | 1.0 | 5.0 | 0.00 | 0.00 | 0.00 | 72 | 1018.0 |
| 20260504031556 | 67 | 0 | 1.0 | 5.0 | 0.00 | 0.00 | 0.00 | 72 | 1017.9 |
| 20260504031057 | 67 | 87 | 1.0 | 5.0 | 0.00 | 0.00 | 0.00 | 72 | 1017.9 |
| 20260504030553 | 67 | 104 | 1.0 | 8.0 | 0.00 | 0.00 | 0.00 | 72 | 1017.9 |
| 20260504030057 | 68 | 0 | 1.0 | 8.0 | 0.00 | 0.00 | 0.00 | 71 | 1017.9 |
| 20260504025559 | 68 | 93 | 3.0 | 8.0 | 0.00 | 0.00 | 0.00 | 71 | 1017.9 |
| 20260504025056 | 68 | 80 | 1.0 | 6.0 | 0.00 | 0.00 | 0.00 | 71 | 1017.8 |
| 20260504024555 | 68 | 26 | 2.0 | 6.0 | 0.00 | 0.00 | 0.00 | 71 | 1017.8 |
| 20260504024056 | 68 | 52 | 1.0 | 4.0 | 0.00 | 0.00 | 0.00 | 71 | 1017.8 |
| 20260504023555 | 68 | 0 | 2.0 | 6.0 | 0.00 | 0.00 | 0.00 | 71 | 1017.8 |
| 20260504023057 | 68 | 73 | 2.0 | 6.0 | 0.00 | 0.00 | 0.00 | 71 | 1017.9 |
| 20260504022554 | 68 | 57 | 1.0 | 4.0 | 0.00 | 0.00 | 0.00 | 71 | 1017.9 |
| 20260504022058 | 68 | 68 | 1.0 | 7.0 | 0.00 | 0.00 | 0.00 | 71 | 1017.8 |
| 20260504021557 | 68 | 78 | 1.0 | 7.0 | 0.00 | 0.00 | 0.00 | 70 | 1017.8 |
| 20260504021055 | 68 | 119 | 2.0 | 6.0 | 0.00 | 0.00 | 0.00 | 70 | 1017.7 |
| 20260504020555 | 68 | 63 | 1.0 | 6.0 | 0.00 | 0.00 | 0.00 | 70 | 1017.7 |
| 20260504020054 | 68 | 93 | 2.0 | 7.0 | 0.00 | 0.00 | 0.00 | 70 | 1017.7 |
| 20260504015555 | 69 | 55 | 1.0 | 8.0 | 0.00 | 0.00 | 0.00 | 69 | 1017.6 |
| 20260504015055 | 69 | 98 | 3.0 | 8.0 | 0.00 | 0.00 | 0.00 | 69 | 1017.3 |
| 20260504014557 | 69 | 29 | 1.0 | 8.0 | 0.00 | 0.00 | 0.00 | 69 | 1017.2 |
| 20260504014055 | 69 | 51 | 2.0 | 7.0 | 0.00 | 0.00 | 0.00 | 68 | 1017.3 |
| 20260504013553 | 69 | 103 | 3.0 | 7.0 | 0.00 | 0.00 | 0.00 | 68 | 1017.2 |
| 20260504013111 | 69 | 123 | 3.0 | 8.0 | 0.00 | 0.00 | 0.00 | 67 | 1017.2 |
| 20260504012555 | 70 | 109 | 2.0 | 8.0 | 0.00 | 0.00 | 0.00 | 67 | 1017.2 |
| 20260504012055 | 70 | 107 | 3.0 | 9.0 | 0.00 | 0.00 | 0.00 | 67 | 1017.1 |
| 20260504011556 | 70 | 142 | 2.0 | 9.0 | 0.00 | 0.00 | 0.00 | 66 | 1017.0 |
| 20260504011054 | 70 | 29 | 4.0 | 9.0 | 0.00 | 0.00 | 0.00 | 66 | 1016.9 |
| 20260504010555 | 70 | 46 | 3.0 | 9.0 | 0.00 | 0.00 | 0.00 | 65 | 1017.0 |
| 20260504010105 | 71 | 117 | 2.0 | 7.0 | 0.00 | 0.00 | 0.00 | 64 | 1016.8 |
| 20260504005556 | 71 | 45 | 4.0 | 8.0 | 0.00 | 0.00 | 0.00 | 63 | 1017.0 |
| 20260504005057 | 71 | 69 | 3.0 | 8.0 | 0.00 | 0.00 | 0.00 | 63 | 1016.9 |
| 20260504004606 | 71 | 0 | 3.0 | 8.0 | 0.00 | 0.00 | 0.00 | 62 | 1016.8 |
| 20260504004056 | 72 | 98 | 3.0 | 8.0 | 0.00 | 0.00 | 0.00 | 61 | 1016.7 |
| 20260504003555 | 72 | 139 | 2.0 | 8.0 | 0.00 | 0.00 | 0.00 | 60 | 1016.6 |
| 20260504003053 | 72 | 76 | 3.0 | 8.0 | 0.00 | 0.00 | 0.00 | 60 | 1016.6 |
| 20260504002555 | 72 | 64 | 2.0 | 7.0 | 0.00 | 0.00 | 0.00 | 59 | 1016.6 |
| 20260504002053 | 73 | 69 | 3.0 | 7.0 | 0.00 | 0.00 | 0.00 | 58 | 1016.6 |
| 20260504001554 | 73 | 113 | 2.0 | 7.0 | 0.00 | 0.00 | 0.00 | 58 | 1016.7 |
| 20260504001055 | 73 | 125 | 2.0 | 7.0 | 0.00 | 0.00 | 0.00 | 58 | 1016.7 |
| 20260504000555 | 73 | 114 | 2.0 | 7.0 | 0.00 | 0.00 | 0.00 | 57 | 1016.7 |
| 20260504000113 | 73 | 32 | 1.0 | 7.0 | 0.00 | 0.00 | 0.00 | 57 | 1016.7 |
| 20260503235557 | 73 | 119 | 1.0 | 5.0 | 0.00 | 0.00 | 0.00 | 57 | 1016.6 |
| 20260503235101 | 74 | 0 | 2.0 | 7.0 | 0.00 | 0.00 | 0.00 | 56 | 1016.6 |
| 20260503234557 | 74 | 135 | 2.0 | 7.0 | 0.00 | 0.00 | 0.00 | 56 | 1016.4 |
| 20260503234057 | 74 | 100 | 2.0 | 7.0 | 0.00 | 0.00 | 0.00 | 56 | 1016.4 |
| 20260503233557 | 74 | 92 | 1.0 | 9.0 | 0.00 | 0.00 | 0.00 | 56 | 1016.3 |
| 20260503233058 | 74 | 154 | 2.0 | 9.0 | 0.00 | 0.00 | 0.00 | 56 | 1016.2 |
| 20260503232556 | 74 | 77 | 3.0 | 9.0 | 0.00 | 0.00 | 0.00 | 56 | 1016.3 |
| 20260503232057 | 75 | 65 | 1.0 | 8.0 | 0.00 | 0.00 | 0.00 | 55 | 1016.4 |
| 20260503231555 | 75 | 71 | 3.0 | 8.0 | 0.00 | 0.00 | 0.00 | 55 | 1016.2 |
| 20260503231058 | 75 | 51 | 2.0 | 8.0 | 0.00 | 0.00 | 0.00 | 56 | 1016.2 |
| 20260503230557 | 75 | 161 | 3.0 | 9.0 | 0.00 | 0.00 | 0.00 | 55 | 1016.2 |
| 20260503230058 | 76 | 42 | 3.0 | 9.0 | 0.00 | 0.00 | 0.00 | 54 | 1016.1 |
| 20260503225557 | 76 | 90 | 3.0 | 12.0 | 0.00 | 0.00 | 0.00 | 55 | 1016.2 |
| 20260503225056 | 76 | 105 | 5.0 | 12.0 | 0.00 | 0.00 | 0.00 | 55 | 1016.2 |
| 20260503224556 | 76 | 115 | 3.0 | 11.0 | 0.00 | 0.00 | 0.00 | 54 | 1016.1 |
| 20260503224056 | 76 | 113 | 5.0 | 11.0 | 0.00 | 0.00 | 0.00 | 54 | 1016.2 |
| 20260503223557 | 76 | 143 | 4.0 | 11.0 | 0.00 | 0.00 | 0.00 | 55 | 1016.1 |
| 20260503223057 | 76 | 95 | 4.0 | 10.0 | 0.00 | 0.00 | 0.00 | 55 | 1016.2 |
| 20260503222557 | 76 | 124 | 3.0 | 8.0 | 0.00 | 0.00 | 0.00 | 55 | 1016.2 |
| 20260503222057 | 76 | 107 | 2.0 | 8.0 | 0.00 | 0.00 | 0.00 | 54 | 1016.2 |
| 20260503221558 | 77 | 83 | 3.0 | 8.0 | 0.00 | 0.00 | 0.00 | 54 | 1016.3 |
| 20260503221057 | 77 | 130 | 3.0 | 8.0 | 0.00 | 0.00 | 0.00 | 53 | 1016.2 |
| 20260503220558 | 77 | 78 | 2.0 | 9.0 | 0.00 | 0.00 | 0.00 | 52 | 1016.3 |
| 20260503220114 | 77 | 84 | 3.0 | 9.0 | 0.00 | 0.00 | 0.00 | 53 | 1016.2 |
| 20260503215557 | 78 | 111 | 4.0 | 9.0 | 0.00 | 0.00 | 0.00 | 53 | 1016.3 |
| 20260503215057 | 78 | 111 | 4.0 | 9.0 | 0.00 | 0.00 | 0.00 | 53 | 1016.1 |
| 20260503214558 | 78 | 134 | 2.0 | 12.0 | 0.00 | 0.00 | 0.00 | 53 | 1016.2 |
| 20260503214057 | 78 | 106 | 3.0 | 13.0 | 0.00 | 0.00 | 0.00 | 52 | 1016.1 |
| 20260503213555 | 78 | 114 | 7.0 | 13.0 | 0.00 | 0.00 | 0.00 | 52 | 1016.0 |
| 20260503213058 | 78 | 59 | 6.0 | 13.0 | 0.00 | 0.00 | 0.00 | 52 | 1016.0 |
| 20260503212556 | 78 | 104 | 4.0 | 11.0 | 0.00 | 0.00 | 0.00 | 53 | 1016.0 |
| 20260503212055 | 78 | 119 | 4.0 | 11.0 | 0.00 | 0.00 | 0.00 | 53 | 1016.0 |
| 20260503211555 | 78 | 49 | 5.0 | 10.0 | 0.00 | 0.00 | 0.00 | 52 | 1016.0 |
| 20260503211058 | 79 | 89 | 4.0 | 9.0 | 0.00 | 0.00 | 0.00 | 52 | 1015.9 |
| 20260503210557 | 78 | 147 | 3.0 | 9.0 | 0.00 | 0.00 | 0.00 | 53 | 1016.0 |
| 20260503210058 | 77 | 97 | 2.0 | 10.0 | 0.00 | 0.00 | 0.00 | 55 | 1016.1 |
| 20260503205558 | 77 | 99 | 3.0 | 10.0 | 0.00 | 0.00 | 0.00 | 55 | 1016.1 |
| 20260503205056 | 78 | 129 | 5.0 | 12.0 | 0.00 | 0.00 | 0.00 | 54 | 1016.1 |
| 20260503204605 | 79 | 167 | 3.0 | 12.0 | 0.00 | 0.00 | 0.00 | 51 | 1016.2 |
| 20260503204055 | 78 | 92 | 5.0 | 11.0 | 0.00 | 0.00 | 0.00 | 55 | 1016.3 |
| 20260503203553 | 78 | 122 | 5.0 | 11.0 | 0.00 | 0.00 | 0.00 | 54 | 1016.3 |
| 20260503203059 | 78 | 69 | 1.0 | 8.0 | 0.00 | 0.00 | 0.00 | 53 | 1016.3 |
| 20260503202555 | 78 | 44 | 2.0 | 10.0 | 0.00 | 0.00 | 0.00 | 53 | 1016.4 |
| 20260503202055 | 78 | 60 | 4.0 | 10.0 | 0.00 | 0.00 | 0.00 | 52 | 1016.5 |
| 20260503201559 | 79 | 84 | 3.0 | 8.0 | 0.00 | 0.00 | 0.00 | 52 | 1016.6 |
| 20260503201059 | 79 | 104 | 2.0 | 8.0 | 0.00 | 0.00 | 0.00 | 53 | 1016.5 |
| 20260503200556 | 78 | 65 | 3.0 | 12.0 | 0.00 | 0.00 | 0.00 | 53 | 1016.5 |
| 20260503195554 | 79 | 130 | 4.0 | 10.0 | 0.00 | 0.14 | 0.00 | 53 | 1016.7 |
| 20260503195055 | 78 | 134 | 1.0 | 7.0 | 0.00 | 0.14 | 0.00 | 56 | 1016.6 |
| 20260503194603 | 77 | 0 | 2.0 | 9.0 | 0.00 | 0.14 | 0.00 | 55 | 1016.8 |
| 20260503194056 | 77 | 75 | 2.0 | 11.0 | 0.00 | 0.14 | 0.00 | 55 | 1016.9 |
| 20260503193555 | 78 | 111 | 5.0 | 11.0 | 0.00 | 0.14 | 0.00 | 55 | 1016.8 |
| 20260503193058 | 78 | 113 | 6.0 | 10.0 | 0.00 | 0.14 | 0.00 | 55 | 1016.9 |
| 20260503192555 | 78 | 103 | 5.0 | 10.0 | 0.00 | 0.14 | 0.00 | 57 | 1017.0 |
| 20260503192055 | 79 | 103 | 3.0 | 10.0 | 0.00 | 0.14 | 0.00 | 53 | 1017.2 |
| 20260503191554 | 79 | 328 | 2.0 | 10.0 | 0.00 | 0.14 | 0.00 | 54 | 1017.2 |
| 20260503191055 | 79 | 336 | 3.0 | 8.0 | 0.00 | 0.14 | 0.00 | 54 | 1017.3 |
| 20260503190556 | 79 | 34 | 2.0 | 9.0 | 0.00 | 0.14 | 0.00 | 54 | 1017.4 |
| 20260503190054 | 78 | 0 | 2.0 | 9.0 | 0.00 | 0.14 | 0.00 | 51 | 1017.4 |
| 20260503185555 | 79 | 342 | 2.0 | 9.0 | 0.00 | 0.42 | 0.00 | 54 | 1017.6 |
| 20260503185059 | 78 | 306 | 1.0 | 8.0 | 0.00 | 0.42 | 0.00 | 56 | 1017.6 |
| 20260503184605 | 77 | 344 | 2.0 | 7.0 | 0.00 | 0.42 | 0.00 | 56 | 1017.7 |
| 20260503184056 | 78 | 333 | 2.0 | 7.0 | 0.00 | 0.42 | 0.00 | 55 | 1017.8 |
| 20260503183554 | 78 | 171 | 1.0 | 6.0 | 0.00 | 0.42 | 0.00 | 55 | 1017.7 |
| 20260503183057 | 78 | 322 | 2.0 | 6.0 | 0.00 | 0.42 | 0.00 | 54 | 1017.8 |
| 20260503182557 | 79 | 24 | 1.0 | 8.0 | 0.00 | 0.42 | 0.00 | 55 | 1017.8 |
| 20260503182056 | 78 | 167 | 1.0 | 8.0 | 0.00 | 0.42 | 0.00 | 57 | 1017.8 |
| 20260503181602 | 78 | 55 | 2.0 | 7.0 | 0.00 | 0.42 | 0.00 | 54 | 1017.9 |
| 20260503181056 | 77 | 90 | 3.0 | 8.0 | 0.00 | 0.42 | 0.00 | 56 | 1017.9 |
| 20260503180555 | 77 | 360 | 3.0 | 9.0 | 0.00 | 0.42 | 0.00 | 57 | 1017.9 |
| 20260503180116 | 77 | 89 | 2.0 | 9.0 | 0.00 | 0.42 | 0.00 | 58 | 1018.0 |
| 20260503175555 | 76 | 31 | 1.0 | 8.0 | 0.00 | 0.42 | 0.00 | 59 | 1018.0 |
| 20260503175056 | 76 | 76 | 2.0 | 8.0 | 0.00 | 0.42 | 0.00 | 58 | 1018.1 |
| 20260503174555 | 77 | 26 | 2.0 | 8.0 | 0.00 | 0.42 | 0.00 | 59 | 1018.2 |
| 20260503174059 | 77 | 301 | 2.0 | 10.0 | 0.00 | 0.42 | 0.00 | 60 | 1018.2 |
| 20260503173555 | 76 | 12 | 2.0 | 10.0 | 0.00 | 0.42 | 0.00 | 61 | 1018.3 |
| 20260503173108 | 76 | 352 | 5.0 | 10.0 | 0.00 | 0.42 | 0.00 | 62 | 1018.3 |
| 20260503172556 | 76 | 360 | 3.0 | 9.0 | 0.00 | 0.42 | 0.00 | 64 | 1018.3 |
| 20260503172055 | 75 | 346 | 2.0 | 7.0 | 0.00 | 0.42 | 0.00 | 63 | 1018.5 |
| 20260503171555 | 75 | 5 | 2.0 | 9.0 | 0.00 | 0.42 | 0.00 | 63 | 1018.5 |
| 20260503171056 | 75 | 154 | 2.0 | 11.0 | 0.00 | 0.42 | 0.00 | 61 | 1018.5 |
| 20260503170556 | 74 | 71 | 5.0 | 11.0 | 0.00 | 0.42 | 0.00 | 63 | 1018.7 |
| 20260503170106 | 74 | 325 | 2.0 | 9.0 | 0.00 | 0.42 | 0.00 | 64 | 1018.8 |
| 20260503160114 | 73 | 329 | 3.0 | 10.0 | 0.00 | 0.42 | 0.00 | 68 | 1019.2 |
| 20260503150555 | 71 | 333 | 1.0 | 11.0 | 0.00 | 0.42 | 0.00 | 73 | 1018.9 |
| 20260503150103 | 70 | 347 | 6.0 | 12.0 | 0.00 | 0.42 | 0.00 | 72 | 1018.9 |
| 20260503140108 | 66 | 184 | 4.0 | 11.0 | 0.00 | 0.42 | 0.00 | 79 | 1018.7 |
| 20260503131055 | 64 | 340 | 3.0 | 8.0 | 0.00 | 0.42 | 0.00 | 86 | 1018.4 |
| 20260503130554 | 64 | 322 | 2.0 | 8.0 | 0.00 | 0.42 | 0.00 | 88 | 1018.3 |